createdAt,value
2018-07-21T00:00:50.252Z,49.40
2018-07-21T00:03:19.331Z,50.23
2018-07-21T00:05:48.152Z,51.28
2018-07-21T00:08:17.328Z,51.54
2018-07-21T00:10:46.378Z,52.36
2018-07-21T00:13:15.446Z,53.47
2018-07-21T00:15:44.402Z,53.92
2018-07-21T00:18:13.219Z,55.07
2018-07-21T00:20:42.238Z,55.33
2018-07-21T00:23:11.114Z,56.28
2018-07-21T00:25:39.933Z,56.24
2018-07-21T00:28:08.897Z,57.44
2018-07-21T00:30:37.774Z,57.64
2018-07-21T00:33:06.822Z,57.94
2018-07-21T00:35:35.744Z,58.32
2018-07-21T00:38:04.727Z,58.79
2018-07-21T00:40:33.780Z,58.36
2018-07-21T00:43:02.584Z,58.81
2018-07-21T00:45:31.655Z,59.26
2018-07-21T00:48:00.571Z,58.69
2018-07-21T00:50:29.792Z,59.44
2018-07-21T00:52:58.682Z,60.00
2018-07-21T00:55:28.440Z,59.86
2018-07-21T00:57:57.424Z,59.47
2018-07-21T01:00:26.196Z,58.95
2018-07-21T01:02:54.894Z,58.99
2018-07-21T01:05:23.619Z,59.62
2018-07-21T01:07:52.881Z,60.04
2018-07-21T01:10:21.816Z,61.09
2018-07-21T01:12:50.707Z,62.16
2018-07-21T01:15:19.288Z,63.77
2018-07-21T01:17:47.938Z,65.87
2018-07-21T01:20:18.785Z,67.80
2018-07-21T01:22:47.395Z,68.69
2018-07-21T01:27:43.680Z,69.88
2018-07-21T01:30:12.378Z,70.18
2018-07-21T01:32:40.982Z,71.26
2018-07-21T01:35:10.866Z,70.41
2018-07-21T01:37:39.628Z,70.46
2018-07-21T01:40:08.544Z,70.12
2018-07-21T01:42:37.324Z,69.25
2018-07-21T01:45:07.195Z,69.38
2018-07-21T01:47:36.029Z,69.37
2018-07-21T01:50:04.950Z,68.97
2018-07-21T01:52:33.880Z,69.81
2018-07-21T01:55:02.487Z,69.54
2018-07-21T01:57:31.223Z,69.65
2018-07-21T01:59:59.884Z,70.28
2018-07-21T02:02:28.647Z,70.48
2018-07-21T02:04:57.292Z,70.52
2018-07-21T02:07:26.005Z,71.27
2018-07-21T02:09:54.551Z,71.13
2018-07-21T02:12:23.240Z,72.06
2018-07-21T02:14:52.008Z,72.49
2018-07-21T02:17:20.541Z,72.35
2018-07-21T02:19:49.289Z,72.95
2018-07-21T02:22:18.190Z,73.25
2018-07-21T02:24:46.913Z,73.33
2018-07-21T02:27:15.771Z,73.07
2018-07-21T02:29:44.442Z,72.77
2018-07-21T02:32:13.163Z,73.21
2018-07-21T02:34:41.896Z,71.87
2018-07-21T02:37:10.600Z,71.46
2018-07-21T02:39:39.205Z,70.06
2018-07-21T02:42:07.902Z,69.32
2018-07-21T02:44:36.462Z,68.83
2018-07-21T02:47:05.203Z,68.65
2018-07-21T02:49:33.746Z,68.54
2018-07-21T02:52:02.327Z,68.34
2018-07-21T02:54:30.968Z,68.25
2018-07-21T02:56:59.659Z,68.67
2018-07-21T02:59:28.491Z,68.03
2018-07-21T03:01:57.273Z,68.35
2018-07-21T03:04:25.963Z,69.07
2018-07-21T03:06:54.636Z,68.33
2018-07-21T03:09:23.243Z,68.85
2018-07-21T03:11:51.898Z,68.23
2018-07-21T03:14:20.564Z,68.23
2018-07-21T03:16:49.266Z,68.29
2018-07-21T03:19:18.014Z,68.65
2018-07-21T03:21:46.684Z,68.26
2018-07-21T03:24:15.409Z,68.29
2018-07-21T03:26:44.090Z,68.29
2018-07-21T03:29:13.702Z,68.15
2018-07-21T03:31:42.408Z,67.20
2018-07-21T03:34:11.606Z,67.31
2018-07-21T03:36:40.256Z,66.50
2018-07-21T03:39:10.777Z,66.55
2018-07-21T03:41:39.593Z,66.69
2018-07-21T03:44:08.268Z,66.67
2018-07-21T03:46:36.990Z,66.23
2018-07-21T03:49:05.652Z,66.65
2018-07-21T03:51:34.285Z,66.22
2018-07-21T03:54:02.950Z,66.83
2018-07-21T03:56:31.524Z,67.30
2018-07-21T03:59:00.312Z,67.37
2018-07-21T04:01:28.903Z,67.09
2018-07-21T04:03:58.437Z,67.28
2018-07-21T04:06:27.119Z,67.78
2018-07-21T04:08:56.390Z,67.52
2018-07-21T04:11:25.185Z,67.73
2018-07-21T04:13:53.821Z,67.96
2018-07-21T04:16:22.697Z,68.53
2018-07-21T04:18:51.397Z,68.53
2018-07-21T04:21:20.086Z,68.78
2018-07-21T04:23:48.764Z,68.45
2018-07-21T04:26:17.615Z,69.00
2018-07-21T04:28:46.452Z,69.13
2018-07-21T04:31:15.114Z,69.55
2018-07-21T04:33:43.935Z,69.48
2018-07-21T04:36:12.631Z,69.63
2018-07-21T04:38:41.322Z,69.67
2018-07-21T04:41:10.827Z,70.41
2018-07-21T04:43:39.590Z,69.51
2018-07-21T04:46:08.286Z,70.34
2018-07-21T04:48:37.054Z,69.91
2018-07-21T04:51:05.799Z,70.72
2018-07-21T04:53:34.591Z,71.09
2018-07-21T04:56:03.275Z,71.59
2018-07-21T04:58:31.979Z,71.85
2018-07-21T05:01:00.691Z,71.89
2018-07-21T05:03:29.286Z,72.02
2018-07-21T05:05:58.275Z,72.11
2018-07-21T05:08:26.977Z,72.26
2018-07-21T05:10:55.772Z,72.36
2018-07-21T05:13:24.749Z,72.55
2018-07-21T05:15:53.275Z,72.30
2018-07-21T05:18:22.626Z,72.07
2018-07-21T05:20:51.526Z,72.24
2018-07-21T05:23:20.149Z,71.85
2018-07-21T05:25:49.033Z,71.82
2018-07-21T05:28:18.660Z,71.80
2018-07-21T05:30:47.393Z,70.53
2018-07-21T05:33:16.128Z,70.34
2018-07-21T05:35:44.887Z,70.37
2018-07-21T05:38:13.581Z,69.49
2018-07-21T05:40:42.385Z,69.67
2018-07-21T05:43:11.130Z,69.17
2018-07-21T05:45:39.794Z,68.55
2018-07-21T05:48:08.620Z,68.56
2018-07-21T05:50:37.382Z,67.81
2018-07-21T05:53:06.224Z,67.37
2018-07-21T05:55:34.936Z,66.85
2018-07-21T05:58:03.696Z,64.91
2018-07-21T06:00:32.377Z,65.43
2018-07-21T06:03:01.161Z,64.44
2018-07-21T06:05:29.954Z,65.09
2018-07-21T06:07:58.793Z,63.65
2018-07-21T06:10:27.430Z,63.19
2018-07-21T06:12:56.468Z,62.75
2018-07-21T06:15:25.179Z,63.05
2018-07-21T06:17:54.100Z,62.18
2018-07-21T06:20:22.793Z,62.49
2018-07-21T06:22:51.626Z,62.21
2018-07-21T06:25:20.472Z,61.64
2018-07-21T06:27:49.059Z,60.88
2018-07-21T06:30:17.779Z,60.35
2018-07-21T06:32:46.613Z,60.52
2018-07-21T06:35:15.292Z,60.66
2018-07-21T06:37:44.012Z,61.56
2018-07-21T06:40:12.666Z,61.93
2018-07-21T06:42:41.477Z,63.02
2018-07-21T06:45:10.266Z,63.01
2018-07-21T06:47:39.052Z,63.11
2018-07-21T06:50:08.446Z,62.41
2018-07-21T06:52:37.124Z,62.42
2018-07-21T06:55:05.935Z,62.38
2018-07-21T06:57:34.708Z,61.44
2018-07-21T07:00:03.458Z,61.65
2018-07-21T07:02:32.165Z,60.66
2018-07-21T07:05:00.896Z,60.64
2018-07-21T07:07:29.548Z,60.56
2018-07-21T07:09:58.232Z,60.41
2018-07-21T07:12:26.972Z,60.34
2018-07-21T07:14:55.756Z,59.82
2018-07-21T07:17:24.494Z,59.96
2018-07-21T07:19:53.360Z,60.32
2018-07-21T07:22:22.030Z,60.35
2018-07-21T07:24:50.989Z,60.37
2018-07-21T07:27:19.752Z,60.25
2018-07-21T07:29:48.354Z,60.35
2018-07-21T07:32:17.124Z,60.06
2018-07-21T07:34:45.878Z,59.87
2018-07-21T07:37:14.636Z,59.26
2018-07-21T07:39:43.476Z,58.30
2018-07-21T07:42:12.113Z,58.40
2018-07-21T07:44:40.941Z,58.43
2018-07-21T07:47:09.707Z,58.17
2018-07-21T07:49:38.506Z,58.01
2018-07-21T07:52:07.285Z,57.29
2018-07-21T07:54:36.118Z,57.64
2018-07-21T07:57:04.852Z,57.40
2018-07-21T07:59:33.529Z,58.01
2018-07-21T08:02:02.284Z,57.16
2018-07-21T08:04:30.946Z,57.58
2018-07-21T08:06:59.657Z,56.65
2018-07-21T08:09:28.470Z,56.17
2018-07-21T08:11:57.210Z,55.61
2018-07-21T08:14:26.097Z,55.31
2018-07-21T08:16:54.852Z,54.63
2018-07-21T08:19:23.702Z,53.96
2018-07-21T08:21:52.431Z,53.62
2018-07-21T08:24:21.278Z,52.91
2018-07-21T08:26:50.057Z,51.87
2018-07-21T08:29:18.750Z,51.71
2018-07-21T08:31:47.489Z,51.79
2018-07-21T08:34:16.228Z,50.96
2018-07-21T08:36:45.106Z,50.51
2018-07-21T08:39:13.887Z,49.51
2018-07-21T08:41:42.654Z,48.56
2018-07-21T08:44:11.348Z,46.45
2018-07-21T08:46:40.053Z,45.33
2018-07-21T08:49:08.895Z,45.50
2018-07-21T08:51:37.643Z,44.40
2018-07-21T08:54:06.307Z,43.97
2018-07-21T08:56:35.059Z,43.75
2018-07-21T08:59:04.010Z,44.44
2018-07-21T09:01:32.681Z,42.04
2018-07-21T09:04:01.432Z,42.93
2018-07-21T09:06:30.744Z,42.31
2018-07-21T09:08:59.627Z,43.40
2018-07-21T09:11:28.413Z,42.21
2018-07-21T09:13:57.356Z,41.90
2018-07-21T09:16:26.062Z,42.67
2018-07-21T09:18:54.772Z,40.84
2018-07-21T09:21:23.535Z,40.70
2018-07-21T09:23:52.214Z,40.17
2018-07-21T09:26:20.799Z,40.55
2018-07-21T09:28:49.516Z,39.82
2018-07-21T09:31:18.202Z,40.18
2018-07-21T09:33:46.950Z,39.96
2018-07-21T09:36:15.704Z,40.32
2018-07-21T09:38:44.424Z,40.33
2018-07-21T09:41:13.070Z,39.54
2018-07-21T09:43:41.930Z,39.55
2018-07-21T09:46:10.719Z,39.62
2018-07-21T09:48:39.466Z,39.06
2018-07-21T09:51:08.324Z,37.96
2018-07-21T09:53:37.166Z,38.10
2018-07-21T09:56:06.004Z,38.53
2018-07-21T09:58:34.804Z,37.46
2018-07-21T10:01:04.633Z,38.73
2018-07-21T10:03:34.624Z,39.11
2018-07-21T10:06:03.996Z,39.35
2018-07-21T10:08:33.740Z,38.28
2018-07-21T10:11:02.430Z,38.75
2018-07-21T10:13:31.217Z,38.79
2018-07-21T10:15:59.976Z,38.02
2018-07-21T10:18:28.771Z,38.19
2018-07-21T10:20:57.429Z,37.37
2018-07-21T10:23:26.101Z,37.57
2018-07-21T10:26:00.007Z,36.66
2018-07-21T10:28:33.903Z,37.39
2018-07-21T10:31:02.634Z,37.25
2018-07-21T10:33:31.339Z,37.27
2018-07-21T10:36:00.189Z,35.77
2018-07-21T10:38:29.033Z,35.57
2018-07-21T10:40:57.712Z,35.79
2018-07-21T10:43:26.481Z,35.84
2018-07-21T10:45:55.182Z,36.51
2018-07-21T10:48:23.921Z,34.56
2018-07-21T10:50:52.655Z,34.00
2018-07-21T10:53:21.248Z,34.29
2018-07-21T10:55:50.855Z,35.00
2018-07-21T10:58:19.607Z,35.41
2018-07-21T11:00:48.383Z,35.90
2018-07-21T11:03:17.132Z,35.64
2018-07-21T11:05:45.805Z,34.85
2018-07-21T11:08:14.422Z,35.46
2018-07-21T11:10:43.185Z,33.78
2018-07-21T11:13:12.880Z,33.68
2018-07-21T11:15:42.709Z,33.86
2018-07-21T11:18:11.486Z,34.03
2018-07-21T11:20:40.251Z,33.84
2018-07-21T11:23:09.034Z,32.53
2018-07-21T11:25:37.747Z,32.30
2018-07-21T11:28:06.541Z,32.01
2018-07-21T11:30:35.318Z,32.46
2018-07-21T11:33:04.034Z,31.67
2018-07-21T11:35:32.948Z,32.41
2018-07-21T11:38:01.496Z,33.68
2018-07-21T11:40:30.251Z,34.79
2018-07-21T11:42:58.906Z,34.84
2018-07-21T11:45:27.680Z,34.97
2018-07-21T11:47:56.368Z,34.07
2018-07-21T11:50:25.071Z,32.97
2018-07-21T11:52:53.740Z,33.46
2018-07-21T11:55:22.339Z,32.52
2018-07-21T11:57:50.961Z,31.12
2018-07-21T12:00:19.575Z,32.02
2018-07-21T12:02:48.238Z,30.61
2018-07-21T12:05:16.868Z,32.52
2018-07-21T12:07:45.627Z,30.74
2018-07-21T12:10:14.445Z,32.04
2018-07-21T12:12:43.183Z,30.79
2018-07-21T12:15:11.860Z,31.00
2018-07-21T12:17:40.885Z,30.88
2018-07-21T12:20:09.555Z,27.79
2018-07-21T12:22:38.261Z,29.40
2018-07-21T12:25:07.028Z,28.76
2018-07-21T12:27:35.900Z,27.49
2018-07-21T12:30:05.172Z,27.69
2018-07-21T12:32:33.938Z,26.56
2018-07-21T12:35:02.686Z,25.75
2018-07-21T12:37:31.700Z,24.86
2018-07-21T12:40:01.477Z,23.58
2018-07-21T12:42:30.250Z,23.40
2018-07-21T12:44:59.104Z,23.36
2018-07-21T12:47:27.826Z,24.65
2018-07-21T12:49:56.654Z,23.60
2018-07-21T12:52:25.396Z,23.82
2018-07-21T12:54:54.213Z,22.99
2018-07-21T12:57:22.957Z,21.80
2018-07-21T12:59:51.670Z,22.63
2018-07-21T13:02:20.515Z,24.15
2018-07-21T13:04:49.289Z,25.42
2018-07-21T13:07:21.583Z,26.16
2018-07-21T13:09:50.309Z,25.69
2018-07-21T13:12:19.083Z,26.80
2018-07-21T13:14:47.904Z,24.85
2018-07-21T13:17:16.606Z,24.19
2018-07-21T13:19:45.306Z,21.97
2018-07-21T13:22:14.117Z,21.41
2018-07-21T13:24:42.998Z,22.17
2018-07-21T13:27:11.654Z,22.55
2018-07-21T13:29:40.406Z,22.89
2018-07-21T13:32:09.510Z,22.90
2018-07-21T13:34:38.253Z,21.38
2018-07-21T13:37:07.106Z,22.58
2018-07-21T13:39:35.794Z,22.81
2018-07-21T13:42:04.629Z,23.45
2018-07-21T13:44:33.336Z,23.37
2018-07-21T13:47:02.118Z,22.19
2018-07-21T13:49:30.827Z,22.85
2018-07-21T13:51:59.510Z,21.13
2018-07-21T13:54:29.092Z,22.37
2018-07-21T13:56:57.838Z,22.15
2018-07-21T13:59:26.559Z,23.66
2018-07-21T14:01:55.324Z,21.86
2018-07-21T14:04:24.121Z,23.07
2018-07-21T14:06:52.880Z,24.67
2018-07-21T14:09:21.586Z,24.51
2018-07-21T14:11:50.676Z,22.35
2018-07-21T14:14:19.393Z,23.39
2018-07-21T14:16:48.144Z,23.93
2018-07-21T14:19:17.877Z,24.35
2018-07-21T14:21:46.590Z,24.70
2018-07-21T14:24:15.582Z,24.73
2018-07-21T14:26:44.278Z,24.21
2018-07-21T14:29:13.030Z,24.39
2018-07-21T14:31:41.641Z,24.05
2018-07-21T14:34:10.418Z,24.59
2018-07-21T14:36:39.160Z,22.83
2018-07-21T14:39:09.766Z,23.07
2018-07-21T14:41:38.811Z,19.79
2018-07-21T14:44:07.487Z,20.38
2018-07-21T14:46:36.380Z,22.06
2018-07-21T14:49:05.477Z,23.58
2018-07-21T14:51:34.430Z,24.60
2018-07-21T14:54:03.220Z,24.31
2018-07-21T14:56:31.918Z,25.02
2018-07-21T14:59:00.691Z,26.41
2018-07-21T15:01:29.373Z,25.54
2018-07-21T15:03:58.164Z,26.15
2018-07-21T15:06:26.929Z,25.86
2018-07-21T15:08:55.716Z,25.50
2018-07-21T15:11:24.498Z,26.70
2018-07-21T15:13:53.492Z,27.25
2018-07-21T15:16:22.282Z,27.99
2018-07-21T15:18:51.078Z,25.21
2018-07-21T15:21:19.731Z,26.18
2018-07-21T15:23:48.474Z,26.96
2018-07-21T15:26:17.117Z,26.85
2018-07-21T15:28:45.852Z,27.10
2018-07-21T15:31:14.621Z,26.89
2018-07-21T15:33:43.340Z,25.78
2018-07-21T15:36:12.096Z,25.22
2018-07-21T15:38:40.912Z,25.67
2018-07-21T15:41:09.667Z,27.84
2018-07-21T15:43:38.432Z,29.54
2018-07-21T15:46:07.351Z,29.70
2018-07-21T15:48:36.235Z,30.68
2018-07-21T15:51:05.066Z,32.09
2018-07-21T15:53:33.796Z,31.45
2018-07-21T15:56:03.576Z,31.94
2018-07-21T15:58:32.511Z,32.58
2018-07-21T16:01:01.154Z,33.37
2018-07-21T16:03:29.816Z,33.93
2018-07-21T16:05:58.586Z,34.70
2018-07-21T16:08:27.325Z,36.56
2018-07-21T16:10:55.969Z,35.82
2018-07-21T16:13:24.762Z,33.20
2018-07-21T16:15:53.509Z,27.89
2018-07-21T16:18:22.250Z,27.27
2018-07-21T16:20:50.918Z,26.03
2018-07-21T16:23:19.602Z,27.99
2018-07-21T16:25:48.325Z,31.21
2018-07-21T16:28:17.154Z,32.65
2018-07-21T16:30:45.796Z,34.25
2018-07-21T16:33:14.544Z,35.78
2018-07-21T16:35:43.292Z,36.55
2018-07-21T16:38:12.142Z,37.48
2018-07-21T16:40:40.894Z,36.88
2018-07-21T16:43:09.696Z,35.53
2018-07-21T16:45:38.422Z,36.18
2018-07-21T16:48:07.093Z,36.54
2018-07-21T16:50:35.877Z,36.91
2018-07-21T16:53:04.580Z,39.54
2018-07-21T16:55:33.331Z,40.29
2018-07-21T16:58:02.106Z,42.50
2018-07-21T17:00:30.762Z,44.22
2018-07-21T17:02:59.560Z,45.94
2018-07-21T17:05:28.343Z,46.98
2018-07-21T17:07:57.164Z,48.89
2018-07-21T17:10:25.974Z,48.54
2018-07-21T17:12:54.787Z,49.57
2018-07-21T17:15:23.502Z,50.24
2018-07-21T17:17:52.267Z,50.66
2018-07-21T17:20:21.043Z,50.56
2018-07-21T17:22:49.780Z,49.75
2018-07-21T17:25:18.551Z,50.70
2018-07-21T17:27:47.266Z,51.18
2018-07-21T17:30:16.015Z,51.57
2018-07-21T17:32:44.793Z,52.51
2018-07-21T17:35:13.553Z,51.74
2018-07-21T17:37:42.170Z,52.12
2018-07-21T17:40:10.878Z,51.55
2018-07-21T17:42:39.739Z,51.67
2018-07-21T17:45:08.572Z,51.76
2018-07-21T17:47:37.526Z,52.54
2018-07-21T17:50:06.230Z,51.35
2018-07-21T17:52:34.781Z,51.24
2018-07-21T17:55:03.775Z,51.35
2018-07-21T17:57:32.538Z,51.92
2018-07-21T18:00:01.349Z,51.76
2018-07-21T18:02:30.151Z,51.14
2018-07-21T18:04:59.109Z,51.83
2018-07-21T18:07:27.850Z,51.84
2018-07-21T18:09:56.671Z,51.77
2018-07-21T18:12:25.317Z,52.29
2018-07-21T18:14:53.977Z,52.38
2018-07-21T18:17:22.735Z,51.80
2018-07-21T18:19:51.472Z,52.52
2018-07-21T18:22:20.215Z,52.83
2018-07-21T18:24:48.995Z,53.03
2018-07-21T18:27:17.697Z,53.02
2018-07-21T18:29:46.480Z,53.31
2018-07-21T18:32:15.304Z,53.97
2018-07-21T18:34:44.028Z,54.69
2018-07-21T18:37:12.754Z,55.02
2018-07-21T18:39:41.647Z,54.62
2018-07-21T18:42:10.645Z,55.50
2018-07-21T18:44:39.269Z,55.34
2018-07-21T18:47:07.930Z,56.31
2018-07-21T18:49:37.764Z,57.25
2018-07-21T18:52:06.603Z,56.29
2018-07-21T18:54:35.204Z,56.98
2018-07-21T18:57:04.064Z,58.42
2018-07-21T18:59:32.921Z,58.68
2018-07-21T19:02:01.566Z,58.37
2018-07-21T19:04:30.312Z,58.35
2018-07-21T19:06:58.929Z,59.06
2018-07-21T19:09:27.652Z,58.86
2018-07-21T19:12:01.491Z,59.18
2018-07-21T19:14:30.291Z,58.85
2018-07-21T19:16:59.062Z,58.86
2018-07-21T19:19:32.967Z,59.32
2018-07-21T19:22:01.697Z,58.83
2018-07-21T19:24:30.448Z,59.44
2018-07-21T19:27:04.505Z,58.55
2018-07-21T19:29:33.197Z,58.39
2018-07-21T19:32:07.077Z,58.46
2018-07-21T19:34:35.685Z,58.48
2018-07-21T19:37:08.434Z,57.63
2018-07-21T19:39:37.184Z,57.92
2018-07-21T19:42:06.140Z,58.22
2018-07-21T19:44:34.841Z,58.08
2018-07-21T19:47:03.556Z,57.21
2018-07-21T19:49:32.121Z,57.68
2018-07-21T19:52:00.807Z,57.64
2018-07-21T19:54:29.503Z,58.54
2018-07-21T19:56:58.149Z,58.10
2018-07-21T19:59:26.889Z,57.44
2018-07-21T20:01:55.658Z,57.53
2018-07-21T20:04:24.298Z,57.35
2018-07-21T20:06:52.927Z,57.65
2018-07-21T20:09:21.564Z,58.49
2018-07-21T20:11:50.328Z,58.79
2018-07-21T20:14:18.932Z,59.54
2018-07-21T20:16:47.703Z,60.14
2018-07-21T20:19:16.260Z,61.02
2018-07-21T20:21:44.997Z,61.13
2018-07-21T20:24:13.691Z,60.90
2018-07-21T20:26:42.218Z,61.98
2018-07-21T20:29:10.739Z,63.41
2018-07-21T20:31:39.306Z,63.25
2018-07-21T20:34:07.928Z,63.50
2018-07-21T20:36:36.828Z,63.63
2018-07-21T20:39:08.016Z,63.64
2018-07-21T20:41:36.735Z,63.88
2018-07-21T20:44:05.517Z,65.72
2018-07-21T20:46:34.849Z,67.02
2018-07-21T20:49:03.566Z,67.82
2018-07-21T20:51:32.168Z,67.33
2018-07-21T20:54:00.754Z,67.82
2018-07-21T20:56:29.855Z,68.39
2018-07-21T20:58:58.474Z,68.91
2018-07-21T21:01:27.352Z,68.85
2018-07-21T21:03:56.041Z,68.26
2018-07-21T21:06:24.691Z,68.01
2018-07-21T21:08:53.436Z,68.14
2018-07-21T21:11:22.483Z,68.53
2018-07-21T21:13:51.092Z,68.48
2018-07-21T21:16:20.010Z,68.55
2018-07-21T21:18:48.740Z,69.44
2018-07-21T21:21:17.611Z,69.63
2018-07-21T21:23:46.167Z,70.47
2018-07-21T21:26:14.844Z,70.36
2018-07-21T21:28:43.607Z,70.90
2018-07-21T21:31:12.404Z,71.41
2018-07-21T21:33:41.152Z,71.78
2018-07-21T21:36:09.967Z,72.00
2018-07-21T21:38:38.671Z,72.40
2018-07-21T21:41:07.410Z,72.00
2018-07-21T21:43:36.106Z,72.82
2018-07-21T21:46:05.039Z,73.28
2018-07-21T21:48:33.633Z,73.96
2018-07-21T21:51:02.320Z,74.74
2018-07-21T21:53:30.938Z,74.49
2018-07-21T21:55:59.625Z,74.87
2018-07-21T21:58:28.357Z,75.25
2018-07-21T22:01:09.465Z,75.79
2018-07-21T22:03:38.065Z,76.04
2018-07-21T22:06:06.760Z,76.64
2018-07-21T22:08:35.526Z,76.39
2018-07-21T22:11:04.691Z,77.08
2018-07-21T22:13:33.450Z,77.23
2018-07-21T22:16:02.152Z,77.51
2018-07-21T22:18:31.643Z,77.70
2018-07-21T22:21:00.484Z,77.97
2018-07-21T22:23:29.214Z,78.62
2018-07-21T22:25:57.857Z,78.52
2018-07-21T22:28:26.506Z,78.81
2018-07-21T22:30:55.364Z,79.42
2018-07-21T22:33:24.061Z,79.59
2018-07-21T22:35:52.740Z,79.80
2018-07-21T22:38:21.636Z,80.33
2018-07-21T22:40:50.350Z,80.14
2018-07-21T22:43:19.150Z,79.91
2018-07-21T22:45:47.931Z,80.49
2018-07-21T22:48:16.710Z,81.19
2018-07-21T22:50:45.383Z,81.10
2018-07-21T22:53:13.979Z,81.04
2018-07-21T22:55:42.664Z,81.07
2018-07-21T22:58:11.465Z,81.64
2018-07-21T23:00:40.229Z,81.03
2018-07-21T23:03:09.004Z,80.44
2018-07-21T23:05:37.740Z,79.33
2018-07-21T23:08:06.386Z,79.73
2018-07-21T23:10:35.104Z,79.59
2018-07-21T23:13:03.938Z,79.29
2018-07-21T23:15:32.595Z,78.82
2018-07-21T23:18:01.779Z,79.13
2018-07-21T23:20:30.532Z,78.59
2018-07-21T23:22:59.440Z,78.54
2018-07-21T23:25:28.088Z,77.95
2018-07-21T23:27:57.449Z,77.53
2018-07-21T23:30:26.229Z,77.94
2018-07-21T23:32:54.990Z,77.58
2018-07-21T23:35:24.534Z,77.32
2018-07-21T23:37:53.274Z,78.06
2018-07-21T23:40:22.073Z,77.71
2018-07-21T23:42:50.901Z,77.62
2018-07-21T23:45:19.610Z,78.46
2018-07-21T23:47:48.280Z,78.04
2018-07-21T23:50:16.843Z,78.46
2018-07-21T23:52:45.375Z,78.25
2018-07-21T23:55:14.007Z,78.73
2018-07-21T23:57:42.820Z,79.21
